^^
Grace C. Lehan Memorial Weather Station Historical Data
Daily Summary for February 17, 2021 Units:  English    Metric   Both
Daily Weekly Monthly Yearly
  High: Low: Average:
Temperature: 51.8 °F 29.9 °F 40.4 °F
Dew Point: 41.9 °F 27.7 °F 33 °F
Humidity: 93.5% 52.2% 76%
Wind Speed: 1.3mph 0mph 0.1mph
Wind Gust: 7mph - -
Wind- - SSW
Pressure: 30.33 in 30.19 in -
Precipitation: 0.00 in    
 
 
Tabular Data for February 17, 2021
Time Temperature Dew Point Pressure Wind Wind Speed Wind Gust Humidity Rainfall Rate (Hourly) solar
00:04 33.4 °F 30 °F 30.22 in Calm     87% 0.00 in 0 W/m2
00:09 33.4 °F 29.9 °F 30.22 in Calm     87% 0.00 in 0 W/m2
00:14 33.3 °F 29.9 °F 30.22 in Calm     87.1% 0.00 in 0 W/m2
00:19 33.3 °F 30.2 °F 30.23 in Calm     88% 0.00 in 0 W/m2
00:24 33.4 °F 30.2 °F 30.23 in Calm     88% 0.00 in 0 W/m2
00:29 33.3 °F 30.2 °F 30.22 in Calm     88% 0.00 in 0 W/m2
00:34 33.3 °F 30.1 °F 30.22 in Calm     88% 0.00 in 0 W/m2
00:39 33.3 °F 30.1 °F 30.23 in Calm     88% 0.00 in 0 W/m2
00:44 33.2 °F 30.1 °F 30.23 in Calm     88% 0.00 in 0 W/m2
00:49 33.1 °F 29.9 °F 30.22 in Calm     88% 0.00 in 0 W/m2
00:54 32.9 °F 29.8 °F 30.23 in Calm     88% 0.00 in 0 W/m2
00:59 32.8 °F 29.6 °F 30.23 in Calm     88% 0.00 in 0 W/m2
01:04 32.8 °F 29.6 °F 30.23 in Calm     88% 0.00 in 0 W/m2
01:09 32.7 °F 29.6 °F 30.23 in Calm     88% 0.00 in 0 W/m2
01:14 32.6 °F 29.5 °F 30.23 in Calm     88% 0.00 in 0 W/m2
01:19 32.6 °F 29.4 °F 30.24 in Calm     88% 0.00 in 0 W/m2
01:24 32.5 °F 29.6 °F 30.24 in Calm     88.8% 0.00 in 0 W/m2
01:29 32.6 °F 29.7 °F 30.24 in Calm     89% 0.00 in 0 W/m2
01:34 32.6 °F 29.7 °F 30.24 in Calm     89% 0.00 in 0 W/m2
01:39 32.7 °F 30 °F 30.24 in Calm     89.8% 0.00 in 0 W/m2
01:44 32.7 °F 30.1 °F 30.24 in Calm     90% 0.00 in 0 W/m2
01:49 32.7 °F 30 °F 30.24 in Calm     89.7% 0.00 in 0 W/m2
01:54 32.5 °F 29.6 °F 30.24 in Calm     89% 0.00 in 0 W/m2
01:59 32.3 °F 29.4 °F 30.25 in Calm     89% 0.00 in 0 W/m2
02:04 32.1 °F 29.2 °F 30.25 in Calm     89% 0.00 in 0 W/m2
02:09 32 °F 29.1 °F 30.25 in Calm     89% 0.00 in 0 W/m2
02:14 31.9 °F 29 °F 30.24 in Calm     89.2% 0.00 in 0 W/m2
02:19 31.7 °F 29.1 °F 30.24 in Calm     89.9% 0.00 in 0 W/m2
02:24 31.7 °F 29.1 °F 30.24 in Calm     90% 0.00 in 0 W/m2
02:29 31.6 °F 29.1 °F 30.24 in Calm     90% 0.00 in 0 W/m2
02:34 31.5 °F 28.9 °F 30.24 in Calm     90% 0.00 in 0 W/m2
02:39 31.4 °F 28.8 °F 30.24 in Calm     90% 0.00 in 0 W/m2
02:44 31.4 °F 28.8 °F 30.24 in Calm     90.1% 0.00 in 0 W/m2
02:49 31.5 °F 29.2 °F 30.25 in Calm     91% 0.00 in 0 W/m2
02:54 31.6 °F 29.2 °F 30.24 in Calm     91% 0.00 in 0 W/m2
02:59 31.7 °F 29.4 °F 30.25 in Calm     91% 0.00 in 0 W/m2
03:04 31.9 °F 29.5 °F 30.25 in Calm     91% 0.00 in 0 W/m2
03:09 31.8 °F 29.5 °F 30.25 in Calm     91% 0.00 in 0 W/m2
03:14 31.8 °F 29.3 °F 30.25 in Calm     90.6% 0.00 in 0 W/m2
03:19 31.8 °F 29.3 °F 30.25 in Calm     90.3% 0.00 in 0 W/m2
03:24 31.8 °F 29.4 °F 30.25 in Calm     90.6% 0.00 in 0 W/m2
03:29 31.9 °F 29.5 °F 30.25 in Calm     90.5% 0.00 in 0 W/m2
03:34 31.9 °F 29.3 °F 30.25 in Calm     90% 0.00 in 0 W/m2
03:39 31.8 °F 29.2 °F 30.25 in Calm     90% 0.00 in 0 W/m2
03:44 31.6 °F 29 °F 30.25 in Calm     90% 0.00 in 0 W/m2
03:49 31.5 °F 28.9 °F 30.25 in Calm     90% 0.00 in 0 W/m2
03:54 31.5 °F 28.9 °F 30.25 in Calm     90% 0.00 in 0 W/m2
03:59 31.4 °F 28.8 °F 30.25 in Calm     90% 0.00 in 0 W/m2
04:09 31.3 °F 28.7 °F 30.25 in Calm     90% 0.00 in 0 W/m2
04:14 31.2 °F 28.6 °F 30.25 in Calm     90% 0.00 in 0 W/m2
04:19 31.2 °F 28.6 °F 30.26 in Calm     90% 0.00 in 0 W/m2
04:24 31.2 °F 28.6 °F 30.26 in Calm     90% 0.00 in 0 W/m2
04:29 31.1 °F 28.5 °F 30.26 in Calm     90% 0.00 in 0 W/m2
04:34 30.9 °F 28.4 °F 30.26 in Calm     90% 0.00 in 0 W/m2
04:39 30.8 °F 28.2 °F 30.26 in Calm     90% 0.00 in 0 W/m2
04:44 30.7 °F 28.1 °F 30.26 in Calm     90% 0.00 in 0 W/m2
04:49 30.6 °F 28 °F 30.26 in Calm     90% 0.00 in 0 W/m2
04:54 30.6 °F 28.1 °F 30.26 in Calm     90.1% 0.00 in 0 W/m2
04:59 30.5 °F 28 °F 30.26 in Calm     90% 0.00 in 0 W/m2
05:04 30.5 °F 28.1 °F 30.26 in Calm     90.7% 0.00 in 0 W/m2
05:09 30.5 °F 28.2 °F 30.26 in Calm     91% 0.00 in 0 W/m2
05:14 30.5 °F 28.1 °F 30.26 in Calm     91% 0.00 in 0 W/m2
05:19 30.4 °F 28.1 °F 30.26 in Calm     91% 0.00 in 0 W/m2
05:24 30.4 °F 28.1 °F 30.26 in Calm     91% 0.00 in 0 W/m2
05:29 30.4 °F 28.1 °F 30.27 in Calm     91% 0.00 in 0 W/m2
05:34 30.4 °F 28.1 °F 30.27 in Calm     91% 0.00 in 0 W/m2
05:39 30.4 °F 28.1 °F 30.28 in Calm     91% 0.00 in 0 W/m2
05:44 30.4 °F 28.1 °F 30.28 in Calm     91% 0.00 in 0 W/m2
05:49 30.3 °F 28 °F 30.28 in Calm     91% 0.00 in 0 W/m2
05:54 30.3 °F 27.9 °F 30.28 in Calm     91% 0.00 in 0 W/m2
05:59 30.2 °F 27.9 °F 30.29 in Calm     91% 0.00 in 0 W/m2
06:04 30.1 °F 27.8 °F 30.29 in Calm     91% 0.00 in 0 W/m2
06:09 30.1 °F 27.8 °F 30.29 in Calm     91% 0.00 in 0 W/m2
06:14 30.1 °F 28 °F 30.29 in Calm     91.9% 0.00 in 0 W/m2
06:19 30 °F 28 °F 30.29 in Calm     92% 0.00 in 0 W/m2
06:24 30 °F 27.7 °F 30.29 in Calm     91.2% 0.00 in 0 W/m2
06:29 29.9 °F 27.8 °F 30.28 in Calm     91.8% 0.00 in 0 W/m2
06:34 29.9 °F 27.9 °F 30.29 in Calm     92% 0.00 in 0 W/m2
06:39 30 °F 28 °F 30.29 in Calm     92% 0.00 in 0 W/m2
06:44 30.3 °F 28.2 °F 30.29 in Calm     92% 0.00 in 0 W/m2
06:49 30.6 °F 28.6 °F 30.29 in Calm     92.4% 0.00 in 5 W/m2
06:54 30.7 °F 28.9 °F 30.30 in Calm     93% 0.00 in 9 W/m2
06:59 30.6 °F 28.7 °F 30.30 in Calm     92.3% 0.00 in 11 W/m2
07:04 30.6 °F 28.5 °F 30.30 in Calm     92% 0.00 in 14 W/m2
07:09 30.5 °F 28.5 °F 30.30 in Calm     92% 0.00 in 21 W/m2
07:14 30.5 °F 28.5 °F 30.31 in Calm     92% 0.00 in 23 W/m2
07:19 30.6 °F 28.8 °F 30.31 in Calm     92.9% 0.00 in 25 W/m2
07:24 30.7 °F 28.9 °F 30.32 in Calm     92.6% 0.00 in 39 W/m2
07:29 30.9 °F 29.1 °F 30.32 in Calm     93% 0.00 in 39 W/m2
07:34 31.1 °F 29.3 °F 30.32 in Calm     93% 0.00 in 39 W/m2
07:39 31.3 °F 29.5 °F 30.32 in Calm     93% 0.00 in 39 W/m2
07:44 31.6 °F 29.8 °F 30.32 in Calm     93% 0.00 in 63 W/m2
07:49 31.9 °F 30.1 °F 30.32 in Calm     93% 0.00 in 62 W/m2
07:54 32.2 °F 30.4 °F 30.32 in Calm     93% 0.00 in 90 W/m2
07:59 32.6 °F 30.9 °F 30.32 in Calm     93% 0.00 in 163 W/m2
08:00 32.9 °F 31.1 °F 30.32 in Calm     93% 0.00 in 151 W/m2
08:09 34 °F 32.2 °F 30.32 in Calm     93% 0.00 in 195 W/m2
08:14 34.9 °F 33.2 °F 30.32 in Calm     93.5% 0.00 in 216 W/m2
08:19 36.1 °F 34.3 °F 30.32 in Calm     93.2% 0.00 in 237 W/m2
08:24 37.3 °F 35.2 °F 30.32 in Calm     92% 0.00 in 248 W/m2
08:29 38.4 °F 35.7 °F 30.32 in Calm     89.9% 0.00 in 258 W/m2
08:34 39.5 °F 35.8 °F 30.32 in Calm     86.5% 0.00 in 271 W/m2
08:39 40.5 °F 35.9 °F 30.32 in Calm     83.3% 0.00 in 281 W/m2
08:44 41.4 °F 35.8 °F 30.33 in Calm     80.5% 0.00 in 292 W/m2
08:49 42.2 °F 36.2 °F 30.33 in Calm     78.9% 0.00 in 302 W/m2
08:54 42.8 °F 35.7 °F 30.33 in Calm     75.7% 0.00 in 302 W/m2
08:59 43.2 °F 35.8 °F 30.32 in Calm     75% 0.00 in 285 W/m2
09:04 43.4 °F 35.8 °F 30.32 in Calm     74.3% 0.00 in 294 W/m2
09:09 43.4 °F 35.3 °F 30.32 in Calm     73% 0.00 in 172 W/m2
09:14 43.4 °F 35.7 °F 30.32 in Calm     73.9% 0.00 in 246 W/m2
09:19 43.5 °F 35.5 °F 30.32 in Calm     73.1% 0.00 in 272 W/m2
09:24 43.3 °F 34.5 °F 30.32 in Calm     70.9% 0.00 in 167 W/m2
09:29 43.1 °F 34.4 °F 30.32 in Calm     71.2% 0.00 in 114 W/m2
09:34 42.9 °F 34.2 °F 30.32 in Calm     71.1% 0.00 in 105 W/m2
09:39 42.5 °F 33.6 °F 30.32 in Calm     70.3% 0.00 in 105 W/m2
09:44 42.2 °F 33.3 °F 30.32 in Calm     70.3% 0.00 in 134 W/m2
09:49 42 °F 33.5 °F 30.32 in Calm     71.5% 0.00 in 167 W/m2
09:54 41.9 °F 33.6 °F 30.32 in Calm     72% 0.00 in 207 W/m2
09:59 42 °F 33.5 °F 30.32 in Calm     71.7% 0.00 in 229 W/m2
10:04 42.1 °F 33.5 °F 30.32 in Calm     71.1% 0.00 in 211 W/m2
10:09 42.3 °F 33.6 °F 30.31 in Calm     71% 0.00 in 193 W/m2
10:14 42.5 °F 34.2 °F 30.31 in Calm     72.1% 0.00 in 172 W/m2
10:19 42.9 °F 34.6 °F 30.31 in Calm     72.3% 0.00 in 156 W/m2
10:24 43.1 °F 34.2 °F 30.31 in WSW 0.1 mph 2 mph 70.7% 0.00 in 146 W/m2
10:29 43.3 °F 34.3 °F 30.30 in Calm   2 mph 70.3% 0.00 in 144 W/m2
10:34 43.4 °F 34 °F 30.30 in Calm   2 mph 69.1% 0.00 in 148 W/m2
10:39 43.5 °F 33.6 °F 30.30 in Calm     67.9% 0.00 in 149 W/m2
10:44 43.6 °F 33.7 °F 30.30 in Calm     67.9% 0.00 in 160 W/m2
10:49 43.7 °F 34.1 °F 30.30 in WSW 0.1 mph 2 mph 68.6% 0.00 in 165 W/m2
10:54 44 °F 34.4 °F 30.30 in Calm   2 mph 68.6% 0.00 in 165 W/m2
10:59 44.3 °F 34.5 °F 30.31 in Calm   2 mph 68.3% 0.00 in 156 W/m2
11:04 44.6 °F 34.6 °F 30.30 in Calm   2 mph 67.7% 0.00 in 148 W/m2
11:09 44.7 °F 33.8 °F 30.30 in Calm     65.4% 0.00 in 162 W/m2
11:14 44.8 °F 33.9 °F 30.30 in Calm     65.4% 0.00 in 193 W/m2
11:19 44.9 °F 33.9 °F 30.30 in Calm     65.1% 0.00 in 243 W/m2
11:24 45.1 °F 34.5 °F 30.30 in Calm     66% 0.00 in 246 W/m2
11:29 45.5 °F 33.9 °F 30.30 in Calm     63.7% 0.00 in 214 W/m2
11:34 45.8 °F 33.6 °F 30.29 in WSW 0.7 mph 4 mph 62.2% 0.00 in 248 W/m2
11:39 46.1 °F 34.1 °F 30.29 in WSW 0.3 mph 4 mph 62.5% 0.00 in 220 W/m2
11:44 46.5 °F 33.8 °F 30.28 in Calm   4 mph 61.1% 0.00 in 272 W/m2
11:49 46.8 °F 33.9 °F 30.28 in Calm   4 mph 60.4% 0.00 in 272 W/m2
11:54 47.2 °F 33.8 °F 30.28 in SW 0.2 mph 4 mph 59.5% 0.00 in 227 W/m2
11:59 47.4 °F 34 °F 30.28 in SW 0.4 mph 4 mph 59.4% 0.00 in 232 W/m2
12:00 47.6 °F 33.6 °F 30.27 in Calm   4 mph 58% 0.00 in 223 W/m2
12:09 48 °F 34.3 °F 30.27 in SW 0.5 mph 3 mph 58.8% 0.00 in 214 W/m2
12:14 48.3 °F 33.9 °F 30.26 in SW 0.1 mph 3 mph 57.4% 0.00 in 225 W/m2
12:19 48.5 °F 33.8 °F 30.26 in SW 0.1 mph 3 mph 56.6% 0.00 in 241 W/m2
12:24 48.5 °F 33.5 °F 30.26 in SSW 1 mph 5 mph 56% 0.00 in 248 W/m2
12:29 48.5 °F 33.3 °F 30.26 in SSW 0.4 mph 5 mph 55.3% 0.00 in 199 W/m2
12:34 48.6 °F 33.8 °F 30.25 in Calm   5 mph 56.3% 0.00 in 190 W/m2
12:39 48.9 °F 33.9 °F 30.25 in South 0.7 mph 5 mph 56% 0.00 in 178 W/m2
12:44 49 °F 33.9 °F 30.25 in South 0.5 mph 5 mph 55.7% 0.00 in 179 W/m2
12:49 49.1 °F 33.5 °F 30.24 in South 1 mph 5 mph 54.6% 0.00 in 183 W/m2
12:54 49.3 °F 33.4 °F 30.24 in SSW 1 mph 5 mph 54.1% 0.00 in 190 W/m2
12:59 49.6 °F 33.8 °F 30.24 in SSW 0.1 mph 5 mph 54.3% 0.00 in 186 W/m2
13:04 49.7 °F 34 °F 30.24 in SSW 0.2 mph 5 mph 54.5% 0.00 in 174 W/m2
13:09 49.7 °F 33.5 °F 30.24 in South 0.7 mph 5 mph 53.3% 0.00 in 190 W/m2
13:14 49.8 °F 33.9 °F 30.23 in SW 0.6 mph 7 mph 54% 0.00 in 207 W/m2
13:19 50 °F 33.8 °F 30.23 in South 0.4 mph 7 mph 53.4% 0.00 in 225 W/m2
13:24 50.2 °F 33.9 °F 30.23 in SSE 0.1 mph 7 mph 53.2% 0.00 in 241 W/m2
13:29 50.5 °F 33.6 °F 30.23 in Calm   7 mph 52.3% 0.00 in 197 W/m2
13:34 50.6 °F 33.8 °F 30.23 in SE 0.7 mph 7 mph 52.2% 0.00 in 199 W/m2
13:39 50.8 °F 34.1 °F 30.23 in SSE 0.4 mph 6 mph 52.7% 0.00 in 144 W/m2
13:44 50.8 °F 34.6 °F 30.23 in SSE 0.3 mph 6 mph 53.5% 0.00 in 135 W/m2
13:49 50.8 °F 35 °F 30.22 in SSE 0.6 mph 6 mph 54.5% 0.00 in 139 W/m2
13:54 50.8 °F 35.6 °F 30.22 in SSE 0.8 mph 6 mph 55.8% 0.00 in 137 W/m2
13:59 50.8 °F 36 °F 30.22 in South 0.2 mph 6 mph 56.8% 0.00 in 135 W/m2
14:04 50.8 °F 36.3 °F 30.22 in SSE 0.2 mph 6 mph 57.4% 0.00 in 134 W/m2
14:09 50.9 °F 37.1 °F 30.22 in SSE 0.5 mph 4 mph 59% 0.00 in 127 W/m2
14:14 50.9 °F 37.5 °F 30.21 in South 0.5 mph 4 mph 59.8% 0.00 in 116 W/m2
14:19 51 °F 37.6 °F 30.22 in South 0.3 mph 4 mph 60% 0.00 in 116 W/m2
14:24 51 °F 37.8 °F 30.22 in South 1.3 mph 4 mph 60.4% 0.00 in 121 W/m2
14:29 51 °F 38 °F 30.22 in South 0.7 mph 4 mph 61% 0.00 in 114 W/m2
14:34 51.1 °F 38.5 °F 30.22 in South 0.9 mph 6 mph 61.9% 0.00 in 109 W/m2
14:39 51.2 °F 38.6 °F 30.22 in SW 1.1 mph 6 mph 61.9% 0.00 in 114 W/m2
14:44 51.3 °F 38.2 °F 30.22 in SSW 0.7 mph 6 mph 60.6% 0.00 in 114 W/m2
14:49 51.5 °F 38.2 °F 30.21 in South 0.5 mph 6 mph 60.3% 0.00 in 111 W/m2
14:54 51.6 °F 38.5 °F 30.22 in South 0.1 mph 6 mph 60.9% 0.00 in 107 W/m2
14:59 51.7 °F 38.2 °F 30.22 in South 0.6 mph 6 mph 59.8% 0.00 in 116 W/m2
15:04 51.8 °F 37.2 °F 30.22 in South 1.1 mph 6 mph 57.2% 0.00 in 118 W/m2
15:09 51.8 °F 37 °F 30.22 in SSW 1 mph 7 mph 56.7% 0.00 in 107 W/m2
15:14 51.8 °F 36.9 °F 30.21 in SW 1.3 mph 7 mph 56.6% 0.00 in 97 W/m2
15:19 51.8 °F 37 °F 30.21 in SSW 0.8 mph 7 mph 56.9% 0.00 in 86 W/m2
15:30 51.7 °F 37 °F 30.21 in South 1 mph 7 mph 57% 0.00 in 83 W/m2
16:04 51.1 °F 37.7 °F 30.21 in South 0.1 mph 7 mph 59.8% 0.00 in 83 W/m2
16:09 51.1 °F 37.7 °F 30.22 in Calm   1 mph 60% 0.00 in 12 W/m2
16:14 51 °F 37.6 °F 30.21 in Calm   2 mph 60% 0.00 in 11 W/m2
16:19 51 °F 37.6 °F 30.21 in South 0.1 mph 2 mph 60% 0.00 in 9 W/m2
16:24 50.9 °F 37.5 °F 30.21 in South 0.5 mph 4 mph 60% 0.00 in 7 W/m2
16:29 50.9 °F 37.5 °F 30.21 in Calm   4 mph 60% 0.00 in 5 W/m2
16:34 50.8 °F 37.8 °F 30.21 in Calm   4 mph 60.8% 0.00 in 0 W/m2
16:39 50.7 °F 37.8 °F 30.20 in Calm     61% 0.00 in 0 W/m2
16:44 50.6 °F 38.1 °F 30.20 in Calm   1 mph 62.1% 0.00 in 0 W/m2
16:49 50.6 °F 38.5 °F 30.20 in Calm   1 mph 63% 0.00 in 0 W/m2
16:54 50.5 °F 38.7 °F 30.20 in South 0.2 mph 2 mph 63.8% 0.00 in 0 W/m2
16:59 50.5 °F 39 °F 30.21 in Calm   2 mph 64.4% 0.00 in 0 W/m2
17:04 50.5 °F 39.2 °F 30.21 in South 0.1 mph 3 mph 65% 0.00 in 0 W/m2
17:09 50.5 °F 39.4 °F 30.21 in South 0.2 mph 3 mph 65.6% 0.00 in 0 W/m2
17:14 50.6 °F 39.6 °F 30.20 in South 0.4 mph 6 mph 66% 0.00 in 0 W/m2
17:19 50.6 °F 39.7 °F 30.20 in South 0.3 mph 6 mph 66% 0.00 in 0 W/m2
17:24 50.7 °F 39.8 °F 30.20 in South 0.3 mph 6 mph 66.1% 0.00 in 0 W/m2
17:29 50.6 °F 40.1 °F 30.20 in South 0.1 mph 6 mph 67% 0.00 in 0 W/m2
17:34 50.6 °F 40.1 °F 30.20 in Calm   6 mph 67% 0.00 in 0 W/m2
17:39 50.5 °F 40.3 °F 30.20 in Calm   1 mph 67.7% 0.00 in 0 W/m2
17:44 50.5 °F 40.3 °F 30.19 in Calm   1 mph 68% 0.00 in 0 W/m2
17:49 50.5 °F 40.3 °F 30.20 in Calm   1 mph 68% 0.00 in 0 W/m2
17:54 50.5 °F 40.3 °F 30.19 in Calm   1 mph 68% 0.00 in 0 W/m2
17:59 50.5 °F 40.6 °F 30.19 in South 0.1 mph 2 mph 68.6% 0.00 in 0 W/m2
18:04 50.5 °F 40.7 °F 30.19 in Calm   2 mph 69% 0.00 in 0 W/m2
18:09 50.6 °F 40.8 °F 30.20 in Calm     69% 0.00 in 0 W/m2
18:14 50.5 °F 40.8 °F 30.19 in Calm     69% 0.00 in 0 W/m2
18:19 50.6 °F 41.2 °F 30.19 in Calm     70% 0.00 in 0 W/m2
18:24 50.6 °F 41.2 °F 30.19 in Calm     70% 0.00 in 0 W/m2
18:29 50.7 °F 41.3 °F 30.19 in Calm     70% 0.00 in 0 W/m2
18:33 50.8 °F 41.5 °F 30.19 in Calm     70.5% 0.00 in 0 W/m2
18:38 50.9 °F 41.9 °F 30.20 in Calm     71% 0.00 in 0 W/m2
Hartford County Weather
Compliments of Weather Underground - 4 mb